Time;durP1;ratioP1;P1;durP2;ratioP2;P2;SDS_P1;SDS_P2;PMS_P1;PMS_P2;Temp;Humidity;BMP_temperature;BMP_pressure;BME280_temperature;BME280_humidity;BME280_pressure;Samples;Min_cycle;Max_cycle;Signal;HPM_P1;HPM_P2
2023/03/06 00:01:56;;;;;;;0.30;0.30;;;;;;;1.70;96.80;98504.66;5088986;28;20209;-61
2023/03/06 00:04:23;;;;;;;0.37;0.37;;;;;;;1.67;96.81;98494.72;5089031;28;20690;-61
2023/03/06 00:06:51;;;;;;;0.23;0.23;;;;;;;1.68;97.04;98496.34;5088805;28;20198;-61
2023/03/06 00:09:18;;;;;;;3.50;0.63;;;;;;;1.64;96.96;98499.91;5088966;28;20194;-61
2023/03/06 00:11:45;;;;;;;0.30;0.30;;;;;;;1.58;98.44;98491.72;5089196;28;20201;-59
2023/03/06 00:14:11;;;;;;;0.67;0.67;;;;;;;1.54;98.04;98490.25;5090624;28;20198;-58
2023/03/06 00:16:38;;;;;;;0.83;0.67;;;;;;;1.52;97.63;98492.00;5093201;28;20213;-61
2023/03/06 00:19:06;;;;;;;0.57;0.50;;;;;;;1.45;98.41;98485.59;5092796;28;20653;-61
2023/03/06 00:21:33;;;;;;;0.70;0.70;;;;;;;1.44;98.74;98491.53;5092816;28;20202;-61
2023/03/06 00:24:00;;;;;;;0.57;0.57;;;;;;;1.39;99.27;98488.38;5092466;28;20218;-61
2023/03/06 00:26:27;;;;;;;1.37;0.70;;;;;;;1.44;98.08;98478.94;5092856;28;20233;-59
2023/03/06 00:28:54;;;;;;;1.10;0.87;;;;;;;1.43;98.89;98479.03;5092559;28;20214;-58
2023/03/06 00:31:21;;;;;;;0.37;0.37;;;;;;;1.43;99.25;98476.50;5093032;28;20649;-60
2023/03/06 00:33:48;;;;;;;0.47;0.47;;;;;;;1.41;99.27;98470.72;5092891;28;20628;-60
2023/03/06 00:36:16;;;;;;;0.30;0.30;;;;;;;1.45;98.63;98479.75;5092754;28;20202;-61
2023/03/06 00:38:43;;;;;;;2.47;0.40;;;;;;;1.42;99.20;98484.94;5092489;28;20222;-61
2023/03/06 00:41:12;;;;;;;0.30;0.30;;;;;;;1.44;98.96;98478.94;5092661;28;20205;-61
2023/03/06 00:43:39;;;;;;;0.13;0.13;;;;;;;1.53;97.92;98481.03;5092419;28;20225;-60
2023/03/06 00:46:06;;;;;;;1.50;1.10;;;;;;;1.61;97.84;98479.88;5092621;28;20245;-61
2023/03/06 00:48:33;;;;;;;0.50;0.50;;;;;;;1.68;97.77;98473.66;5092517;28;20224;-61
2023/03/06 00:51:01;;;;;;;0.50;0.50;;;;;;;1.70;97.43;98487.03;5092437;28;20658;-59
2023/03/06 00:53:29;;;;;;;0.33;0.33;;;;;;;1.72;97.41;98472.66;5092290;28;20733;-58
2023/03/06 00:55:56;;;;;;;0.90;0.60;;;;;;;1.78;97.13;98469.84;5092485;28;20213;-61
2023/03/06 00:58:23;;;;;;;0.60;0.60;;;;;;;1.71;98.23;98476.03;5092135;28;20218;-61
2023/03/06 01:00:49;;;;;;;0.40;0.40;;;;;;;1.72;98.65;98475.19;5092321;28;20194;-61
2023/03/06 01:03:16;;;;;;;0.67;0.67;;;;;;;1.76;98.33;98471.63;5092060;28;20221;-58
2023/03/06 01:05:43;;;;;;;0.80;0.80;;;;;;;1.76;98.60;98469.09;5092012;28;20238;-58
2023/03/06 01:08:10;;;;;;;0.30;0.30;;;;;;;1.77;98.15;98471.53;5092087;28;20209;-61
2023/03/06 01:10:41;;;;;;;0.67;0.67;;;;;;;1.79;98.62;98474.81;5092001;28;20194;-58
2023/03/06 01:13:08;;;;;;;0.43;0.43;;;;;;;1.76;98.05;98479.19;5091721;28;20218;-61
2023/03/06 01:15:35;;;;;;;0.73;0.73;;;;;;;1.79;98.81;98474.81;5091959;28;20194;-61
2023/03/06 01:18:02;;;;;;;0.60;0.60;;;;;;;1.79;99.00;98468.97;5091578;28;20749;-61
2023/03/06 01:20:29;;;;;;;0.43;0.43;;;;;;;1.69;100.00;98472.81;5091994;28;20198;-58
2023/03/06 01:22:56;;;;;;;0.40;0.40;;;;;;;1.57;100.00;98484.22;5092081;28;20252;-61
2023/03/06 01:25:24;;;;;;;0.53;0.53;;;;;;;1.55;100.00;98481.78;5090742;28;20709;-61
2023/03/06 01:27:53;;;;;;;0.80;0.80;;;;;;;1.44;100.00;98473.09;5091590;28;20303;-59
2023/03/06 01:30:20;;;;;;;0.20;0.20;;;;;;;1.43;100.00;98476.50;5091574;28;20289;-58
2023/03/06 01:32:48;;;;;;;0.80;0.77;;;;;;;1.38;100.00;98480.91;5091591;28;21084;-61
2023/03/06 01:35:15;;;;;;;0.30;0.30;;;;;;;1.41;100.00;98474.03;5091507;28;20833;-61
2023/03/06 01:37:42;;;;;;;1.20;0.67;;;;;;;1.37;100.00;98482.63;5091368;28;20315;-61
2023/03/06 01:40:11;;;;;;;1.27;0.93;;;;;;;1.42;100.00;98480.69;5091564;28;20198;-58
2023/03/06 01:42:38;;;;;;;0.70;0.70;;;;;;;1.45;100.00;98480.56;5091196;28;20210;-58
2023/03/06 01:45:24;;;;;;;0.60;0.60;;;;;;;1.48;100.00;98485.47;5091495;28;20228;-60
2023/03/06 01:47:51;;;;;;;0.57;0.57;;;;;;;1.51;100.00;98480.31;5091016;28;20220;-61
2023/03/06 01:50:18;;;;;;;4.53;1.03;;;;;;;1.53;100.00;98480.22;5091398;28;20205;-61
2023/03/06 01:52:48;;;;;;;0.67;0.67;;;;;;;1.46;99.81;98482.22;5090958;28;20217;-61
2023/03/06 01:55:18;;;;;;;0.57;0.40;;;;;;;1.49;99.36;98482.06;5090978;28;20198;-61
2023/03/06 01:57:48;;;;;;;0.67;0.67;;;;;;;1.49;99.81;98481.25;5091173;28;20225;-58
2023/03/06 02:00:20;;;;;;;0.30;0.30;;;;;;;1.51;99.13;98477.78;5090819;28;20233;-58
2023/03/06 02:02:52;;;;;;;0.53;0.53;;;;;;;1.53;98.63;98483.56;5090902;28;20228;-58
2023/03/06 02:05:20;;;;;;;0.30;0.30;;;;;;;1.54;98.46;98486.88;5090839;28;20225;-59
2023/03/06 02:07:48;;;;;;;0.50;0.50;;;;;;;1.52;99.45;98486.16;5090312;28;20949;-58
2023/03/06 02:10:16;;;;;;;0.70;0.70;;;;;;;1.57;98.30;98485.06;5090540;28;20198;-58
2023/03/06 02:12:44;;;;;;;1.90;1.00;;;;;;;1.49;98.75;98487.13;5090572;28;20666;-59
2023/03/06 02:15:12;;;;;;;0.67;0.67;;;;;;;1.46;99.22;98484.72;5090562;28;20205;-61
2023/03/06 02:17:42;;;;;;;0.40;0.40;;;;;;;1.48;99.04;98494.72;5090651;28;20252;-60
2023/03/06 02:20:13;;;;;;;0.43;0.43;;;;;;;1.48;99.13;98495.53;5090719;28;20196;-61
2023/03/06 02:22:47;;;;;;;0.30;0.30;;;;;;;1.41;99.74;98494.19;5090525;28;20230;-58
2023/03/06 02:25:30;;;;;;;1.27;0.87;;;;;;;1.40;98.94;98487.53;5090178;28;20221;-58
2023/03/06 02:27:57;;;;;;;0.97;0.73;;;;;;;1.35;99.64;98494.47;5090470;28;20728;-58
2023/03/06 02:30:26;;;;;;;0.40;0.40;;;;;;;1.34;99.77;98498.69;5090284;28;20205;-61
2023/03/06 02:32:53;;;;;;;0.80;0.67;;;;;;;1.37;98.98;98502.78;5090100;28;20228;-61
2023/03/06 02:35:22;;;;;;;1.53;0.80;;;;;;;1.36;99.43;98501.94;5090267;28;20590;-59
2023/03/06 02:37:49;;;;;;;0.53;0.53;;;;;;;1.40;99.59;98496.75;5089320;28;20217;-60
2023/03/06 02:40:19;;;;;;;0.60;0.60;;;;;;;1.36;99.15;98508.69;5090045;28;20281;-58
2023/03/06 02:42:49;;;;;;;0.53;0.53;;;;;;;1.34;99.70;98507.94;5090435;28;20217;-61
2023/03/06 02:45:22;;;;;;;0.70;0.70;;;;;;;1.36;99.41;98516.22;5090407;28;20206;-58
2023/03/06 02:47:49;;;;;;;0.57;0.57;;;;;;;1.36;99.07;98513.72;5090108;28;20221;-60
2023/03/06 02:50:16;;;;;;;1.07;0.50;;;;;;;1.38;99.38;98522.03;5090030;28;20213;-59
2023/03/06 02:52:43;;;;;;;0.77;0.77;;;;;;;1.40;99.50;98522.78;5089678;28;20740;-60
2023/03/06 02:55:10;;;;;;;0.83;0.83;;;;;;;1.37;98.98;98522.94;5089850;28;20201;-61
2023/03/06 02:57:37;;;;;;;0.40;0.40;;;;;;;1.31;100.00;98529.03;5089611;28;20225;-58
2023/03/06 03:00:06;;;;;;;0.70;0.70;;;;;;;1.35;99.49;98530.53;5089742;28;20193;-59
2023/03/06 03:02:33;;;;;;;0.60;0.50;;;;;;;1.36;99.15;98521.28;5090083;28;20225;-58
2023/03/06 03:05:01;;;;;;;0.40;0.40;;;;;;;1.35;99.49;98529.72;5089649;28;20198;-58
2023/03/06 03:07:27;;;;;;;1.70;1.30;;;;;;;1.30;99.72;98531.63;5089562;28;20237;-59
2023/03/06 03:09:54;;;;;;;0.20;0.20;;;;;;;1.36;99.54;98532.16;5089838;28;20209;-58
2023/03/06 03:12:22;;;;;;;1.40;0.97;;;;;;;1.32;99.87;98539.94;5089947;28;20214;-58
2023/03/06 03:14:49;;;;;;;0.50;0.50;;;;;;;1.30;99.86;98536.66;5089485;28;20540;-59
2023/03/06 03:17:17;;;;;;;1.13;1.10;;;;;;;1.27;100.00;98531.75;5089494;28;20237;-59
2023/03/06 03:19:44;;;;;;;0.33;0.33;;;;;;;1.26;100.00;98530.94;5089350;28;20194;-61
2023/03/06 03:22:11;;;;;;;0.10;0.10;;;;;;;1.24;100.00;98539.44;5089845;28;20234;-59
2023/03/06 03:24:38;;;;;;;0.50;0.50;;;;;;;1.23;100.00;98538.63;5089315;28;20198;-58
2023/03/06 03:27:05;;;;;;;0.67;0.67;;;;;;;1.28;100.00;98538.41;5089927;28;20328;-61
2023/03/06 03:29:32;;;;;;;0.77;0.73;;;;;;;1.29;100.00;98535.03;5089424;28;20213;-61
2023/03/06 03:31:59;;;;;;;0.30;0.30;;;;;;;1.32;99.98;98539.94;5089381;28;20228;-58
2023/03/06 03:34:28;;;;;;;0.47;0.47;;;;;;;1.30;100.00;98539.16;5089185;28;20759;-58
2023/03/06 03:36:55;;;;;;;0.50;0.50;;;;;;;1.32;100.00;98550.00;5089196;28;20206;-59
2023/03/06 03:39:21;;;;;;;0.60;0.50;;;;;;;1.34;100.00;98540.69;5089427;28;20205;-58
2023/03/06 03:41:48;;;;;;;0.20;0.20;;;;;;;1.31;100.00;98555.94;5089627;28;20209;-58
2023/03/06 03:44:15;;;;;;;0.20;0.20;;;;;;;1.33;100.00;98551.63;5089765;28;20201;-58
2023/03/06 03:46:42;;;;;;;2.57;1.13;;;;;;;1.40;100.00;98557.22;5089390;28;20234;-58
2023/03/06 03:49:09;;;;;;;0.13;0.13;;;;;;;1.42;100.00;98558.78;5091089;28;20201;-58
2023/03/06 03:51:37;;;;;;;0.17;0.17;;;;;;;1.41;100.00;98557.16;5093662;28;20202;-60
2023/03/06 03:54:05;;;;;;;0.73;0.73;;;;;;;1.43;100.00;98562.94;5093201;28;20226;-60
2023/03/06 03:56:32;;;;;;;0.20;0.20;;;;;;;1.49;99.66;98570.25;5093526;28;20205;-61
2023/03/06 03:58:59;;;;;;;0.30;0.30;;;;;;;1.52;100.00;98567.59;5093097;28;20226;-58
2023/03/06 04:01:26;;;;;;;0.40;0.40;;;;;;;1.54;100.00;98560.78;5093268;28;20209;-59
2023/03/06 04:03:54;;;;;;;0.50;0.50;;;;;;;1.55;99.55;98567.44;5093011;28;20223;-58
2023/03/06 04:06:21;;;;;;;2.27;0.80;;;;;;;1.51;100.00;98571.00;5093270;28;20229;-59
2023/03/06 04:08:49;;;;;;;0.20;0.20;;;;;;;1.51;100.00;98571.00;5093166;28;20229;-60
2023/03/06 04:11:16;;;;;;;0.57;0.57;;;;;;;1.49;99.63;98577.78;5093050;28;20206;-58
2023/03/06 04:13:43;;;;;;;0.43;0.37;;;;;;;1.47;100.00;98584.59;5093138;28;20226;-58
2023/03/06 04:16:10;;;;;;;0.57;0.57;;;;;;;1.47;100.00;98579.56;5093029;28;20205;-58
2023/03/06 04:18:37;;;;;;;0.33;0.33;;;;;;;1.53;99.79;98589.38;5093166;28;20224;-61
2023/03/06 04:21:04;;;;;;;0.50;0.50;;;;;;;1.62;99.18;98582.28;5093091;28;20213;-60
2023/03/06 04:23:31;;;;;;;0.40;0.40;;;;;;;1.57;100.00;98585.84;5092643;28;20218;-61
2023/03/06 04:25:59;;;;;;;0.50;0.50;;;;;;;1.62;99.42;98584.81;5092900;28;20613;-61
2023/03/06 04:28:26;;;;;;;0.60;0.60;;;;;;;1.62;99.86;98582.28;5092764;28;20226;-61
2023/03/06 04:30:53;;;;;;;1.53;0.83;;;;;;;1.63;99.90;98584.75;5092706;28;20205;-61
2023/03/06 04:33:20;;;;;;;0.73;0.57;;;;;;;1.67;98.00;98590.47;5092545;28;20396;-61
2023/03/06 04:35:47;;;;;;;0.50;0.50;;;;;;;1.79;98.81;98588.22;5092642;28;20202;-61
2023/03/06 04:38:13;;;;;;;2.20;1.20;;;;;;;1.75;99.49;98589.25;5092373;28;20221;-58
2023/03/06 04:40:41;;;;;;;0.70;0.63;;;;;;;1.74;100.00;98592.63;5092361;28;20646;-59
2023/03/06 04:43:10;;;;;;;4.27;0.60;;;;;;;1.77;98.89;98591.69;5092339;28;20225;-59
2023/03/06 04:45:36;;;;;;;0.60;0.60;;;;;;;1.80;99.18;98602.47;5092468;28;20205;-61
2023/03/06 04:48:04;;;;;;;0.60;0.60;;;;;;;1.85;99.21;98594.69;5092171;28;20240;-61
2023/03/06 04:50:31;;;;;;;1.50;0.50;;;;;;;1.80;99.40;98605.00;5092316;28;20578;-61
2023/03/06 04:53:00;;;;;;;0.37;0.37;;;;;;;1.81;98.97;98605.81;5092050;28;20267;-61
2023/03/06 04:55:27;;;;;;;0.30;0.30;;;;;;;1.85;98.69;98614.84;5092159;28;20267;-58
2023/03/06 04:57:54;;;;;;;1.03;0.93;;;;;;;1.84;98.54;98608.19;5092150;28;20218;-61
2023/03/06 05:00:28;;;;;;;0.50;0.50;;;;;;;1.86;98.67;98616.47;5090989;28;20569;-58
2023/03/06 05:02:55;;;;;;;0.20;0.20;;;;;;;1.83;98.38;98626.69;5092044;28;20304;-58
2023/03/06 05:05:21;;;;;;;1.27;0.80;;;;;;;1.93;97.95;98622.91;5092135;28;20190;-58
2023/03/06 05:07:48;;;;;;;0.50;0.50;;;;;;;1.91;98.35;98634.75;5091980;28;20255;-58
2023/03/06 05:10:18;;;;;;;0.47;0.47;;;;;;;1.92;98.77;98631.34;5091854;28;20193;-58
2023/03/06 05:12:44;;;;;;;0.40;0.40;;;;;;;1.94;98.46;98634.59;5091849;28;20222;-59
2023/03/06 05:15:13;;;;;;;0.27;0.27;;;;;;;1.95;98.39;98638.78;5091851;28;20197;-58
2023/03/06 05:17:41;;;;;;;1.23;0.77;;;;;;;1.96;98.58;98637.88;5091737;28;20225;-61
2023/03/06 05:20:10;;;;;;;1.27;0.80;;;;;;;1.99;98.04;98637.75;5091761;28;20194;-61
2023/03/06 05:22:40;;;;;;;0.60;0.60;;;;;;;2.01;98.22;98638.50;5091792;28;20226;-61
2023/03/06 05:25:09;;;;;;;0.50;0.50;;;;;;;2.04;97.70;98640.91;5091680;28;20666;-61
2023/03/06 05:27:36;;;;;;;0.47;0.47;;;;;;;2.09;97.24;98642.38;5091668;28;20675;-61
2023/03/06 05:30:04;;;;;;;0.63;0.63;;;;;;;2.14;97.60;98640.47;5091637;28;20670;-61
2023/03/06 05:32:31;;;;;;;0.50;0.50;;;;;;;2.17;97.24;98648.72;5091254;28;20645;-58
2023/03/06 05:34:59;;;;;;;0.73;0.67;;;;;;;2.24;96.15;98652.59;5091283;28;20237;-61
2023/03/06 05:37:26;;;;;;;0.30;0.30;;;;;;;2.28;95.81;98648.25;5091905;28;20226;-61
2023/03/06 05:39:53;;;;;;;0.20;0.20;;;;;;;2.35;94.56;98649.56;5091227;28;20190;-58
2023/03/06 05:42:20;;;;;;;0.50;0.50;;;;;;;2.31;95.28;98663.22;5091380;28;20609;-58
2023/03/06 05:44:47;;;;;;;0.93;0.93;;;;;;;2.40;94.51;98662.81;5091024;28;20608;-58
2023/03/06 05:47:14;;;;;;;0.67;0.53;;;;;;;2.39;94.88;98666.22;5091210;28;20241;-61
2023/03/06 05:49:41;;;;;;;1.77;0.90;;;;;;;2.37;95.21;98668.00;5091591;28;20202;-61
2023/03/06 05:52:11;;;;;;;0.80;0.80;;;;;;;2.48;93.83;98675.09;5091202;28;20222;-58
2023/03/06 05:54:38;;;;;;;0.70;0.63;;;;;;;2.57;93.69;98672.13;5091506;28;20201;-59
2023/03/06 05:57:05;;;;;;;2.63;0.97;;;;;;;2.58;93.62;98686.38;5090993;28;20221;-58
2023/03/06 05:59:32;;;;;;;0.30;0.30;;;;;;;2.59;94.18;98680.47;5090967;28;20701;-59
2023/03/06 06:02:00;;;;;;;0.60;0.60;;;;;;;2.60;94.33;98684.59;5090801;28;20684;-58
2023/03/06 06:04:27;;;;;;;1.10;1.00;;;;;;;2.62;94.13;98694.66;5090892;28;20552;-58
2023/03/06 06:06:55;;;;;;;0.20;0.20;;;;;;;2.73;94.01;98694.94;5090526;28;20713;-61
2023/03/06 06:09:24;;;;;;;0.87;0.70;;;;;;;2.79;92.94;98702.22;5090720;28;20194;-61
2023/03/06 06:11:52;;;;;;;0.60;0.60;;;;;;;2.84;93.38;98707.88;5090541;28;20216;-58
2023/03/06 06:14:19;;;;;;;0.40;0.40;;;;;;;2.89;91.93;98711.03;5090628;28;20628;-61
2023/03/06 06:16:46;;;;;;;0.80;0.73;;;;;;;2.90;92.49;98717.69;5090574;28;20216;-61
2023/03/06 06:19:17;;;;;;;0.50;0.50;;;;;;;2.99;91.95;98721.50;5090601;28;20212;-61
2023/03/06 06:21:46;;;;;;;1.00;1.00;;;;;;;3.11;91.68;98730.19;5090628;28;20198;-61
2023/03/06 06:24:13;;;;;;;0.73;0.50;;;;;;;3.22;91.49;98733.03;5090479;28;20197;-61
2023/03/06 06:26:42;;;;;;;1.07;0.60;;;;;;;3.31;90.52;98727.53;5090507;28;20234;-61
2023/03/06 06:29:09;;;;;;;0.50;0.50;;;;;;;3.64;88.42;98739.44;5090538;28;20202;-61
2023/03/06 06:31:37;;;;;;;1.53;0.87;;;;;;;3.78;86.24;98741.25;5090407;28;20198;-58
2023/03/06 06:34:05;;;;;;;0.50;0.50;;;;;;;3.86;86.80;98742.50;5090025;28;20225;-60
2023/03/06 06:36:32;;;;;;;0.60;0.60;;;;;;;3.90;85.38;98744.88;5090380;28;20198;-61
2023/03/06 06:38:59;;;;;;;2.90;1.27;;;;;;;4.34;84.37;98744.34;5090144;28;20226;-58
2023/03/06 06:41:27;;;;;;;1.00;0.97;;;;;;;4.95;83.28;98756.25;5090250;28;20297;-58
2023/03/06 06:43:55;;;;;;;2.23;0.87;;;;;;;5.62;80.25;98752.47;5090016;28;20690;-61
2023/03/06 06:46:22;;;;;;;0.87;0.80;;;;;;;6.01;76.62;98753.63;5090272;28;20198;-59
2023/03/06 06:48:49;;;;;;;0.90;0.80;;;;;;;6.40;73.47;98764.03;5089914;28;20218;-58
2023/03/06 06:51:17;;;;;;;0.93;0.93;;;;;;;6.57;73.23;98777.38;5090090;28;20201;-58
2023/03/06 06:53:44;;;;;;;1.60;0.93;;;;;;;7.32;72.06;98773.59;5089917;28;20221;-58
2023/03/06 06:56:11;;;;;;;2.37;1.40;;;;;;;7.45;70.44;98775.25;5089909;28;20581;-62
2023/03/06 06:58:38;;;;;;;1.80;1.00;;;;;;;7.64;69.02;98774.06;5089821;28;20225;-62
2023/03/06 07:01:08;;;;;;;2.33;1.50;;;;;;;8.01;68.34;98776.72;5089989;28;20194;-62
2023/03/06 07:03:35;;;;;;;2.97;1.03;;;;;;;7.70;67.34;98766.03;5089707;28;20214;-62
2023/03/06 07:06:02;;;;;;;1.33;1.00;;;;;;;7.26;70.01;98777.34;5089860;28;20210;-62
2023/03/06 07:08:29;;;;;;;1.97;1.70;;;;;;;7.76;67.46;98788.50;5089414;28;20740;-62
2023/03/06 07:10:57;;;;;;;1.07;0.97;;;;;;;7.86;65.42;98788.75;5089730;28;20200;-62
2023/03/06 07:13:24;;;;;;;1.20;1.10;;;;;;;8.20;64.83;98787.28;5089583;28;20222;-58
2023/03/06 07:15:51;;;;;;;1.10;1.00;;;;;;;8.76;64.31;98794.59;5089549;28;20201;-58
2023/03/06 07:18:19;;;;;;;1.07;0.97;;;;;;;9.05;63.62;98795.09;5089738;28;20240;-59
2023/03/06 07:20:46;;;;;;;1.67;1.27;;;;;;;9.43;60.55;98794.09;5089770;28;20571;-58
2023/03/06 07:23:13;;;;;;;1.37;1.13;;;;;;;9.47;59.35;98790.38;5089092;28;20232;-59
2023/03/06 07:25:40;;;;;;;1.03;1.03;;;;;;;9.94;60.97;98791.19;5089586;28;20407;-62
2023/03/06 07:28:07;;;;;;;2.10;1.33;;;;;;;9.30;56.80;98800.06;5089755;28;20245;-62
2023/03/06 07:30:34;;;;;;;1.93;1.43;;;;;;;9.91;61.11;98793.97;5089752;28;20217;-59
2023/03/06 07:33:01;;;;;;;2.37;1.70;;;;;;;10.00;58.74;98798.41;5089609;28;20221;-58
2023/03/06 07:35:29;;;;;;;1.93;1.40;;;;;;;10.43;57.78;98797.75;5089379;28;20284;-62
2023/03/06 07:37:56;;;;;;;2.07;1.40;;;;;;;10.79;56.81;98809.47;5089407;28;20309;-62
2023/03/06 07:40:23;;;;;;;3.17;1.70;;;;;;;10.55;57.47;98804.47;5089488;28;20201;-63
2023/03/06 07:42:52;;;;;;;3.83;1.83;;;;;;;11.16;56.64;98811.69;5089378;28;20225;-58
2023/03/06 07:45:19;;;;;;;2.63;1.67;;;;;;;11.81;54.17;98809.91;5089713;28;20193;-59
2023/03/06 07:47:46;;;;;;;2.40;1.70;;;;;;;11.32;53.40;98816.41;5089251;28;20229;-63
2023/03/06 07:50:13;;;;;;;1.90;1.17;;;;;;;10.95;53.87;98811.63;5089242;28;20197;-59
2023/03/06 07:52:42;;;;;;;3.23;1.77;;;;;;;10.97;54.52;98809.78;5089246;28;20218;-59
2023/03/06 07:55:10;;;;;;;3.40;2.00;;;;;;;11.74;54.66;98803.63;5089437;28;20201;-59
2023/03/06 07:57:37;;;;;;;3.30;1.83;;;;;;;11.40;52.28;98808.91;5089544;28;20618;-63
2023/03/06 08:00:07;;;;;;;2.40;1.43;;;;;;;11.47;52.60;98812.63;5089236;28;20300;-65
2023/03/06 08:02:34;;;;;;;4.30;2.00;;;;;;;11.60;51.54;98809.06;5089295;28;20701;-65
2023/03/06 08:05:01;;;;;;;3.97;1.70;;;;;;;12.04;53.48;98804.66;5089351;28;20213;-63
2023/03/06 08:07:29;;;;;;;3.00;1.80;;;;;;;12.40;49.62;98811.84;5089175;28;20230;-59
2023/03/06 08:09:57;;;;;;;2.43;1.67;;;;;;;12.85;47.57;98806.28;5089278;28;20203;-60
2023/03/06 08:12:24;;;;;;;3.00;1.80;;;;;;;12.38;49.63;98798.31;5089272;28;20601;-60
2023/03/06 08:14:51;;;;;;;3.33;1.77;;;;;;;12.46;48.88;98802.81;5089244;28;20201;-59
2023/03/06 08:17:18;;;;;;;3.67;2.20;;;;;;;11.71;49.66;98809.00;5088992;28;20225;-60
2023/03/06 08:19:45;;;;;;;3.10;1.77;;;;;;;11.27;52.10;98810.84;5088965;28;20204;-59
2023/03/06 08:22:12;;;;;;;6.40;1.83;;;;;;;11.28;51.15;98809.91;5089544;28;20230;-59
2023/03/06 08:24:39;;;;;;;2.07;1.60;;;;;;;12.16;52.52;98809.59;5089252;28;20194;-59
2023/03/06 08:27:08;;;;;;;2.00;1.67;;;;;;;12.45;49.66;98804.56;5089308;28;20229;-60
2023/03/06 08:29:35;;;;;;;4.00;1.90;;;;;;;11.44;50.07;98807.75;5089281;28;20194;-64
2023/03/06 08:32:02;;;;;;;3.93;1.80;;;;;;;12.03;49.46;98808.16;5089125;28;20382;-63
2023/03/06 08:34:29;;;;;;;2.43;1.80;;;;;;;12.88;48.54;98810.34;5089188;28;20198;-63
2023/03/06 08:36:55;;;;;;;2.40;1.40;;;;;;;12.44;48.34;98813.19;5092528;28;20197;-59
2023/03/06 08:39:23;;;;;;;2.00;1.30;;;;;;;12.30;49.29;98816.09;5092856;28;20209;-63
2023/03/06 08:41:49;;;;;;;3.93;2.33;;;;;;;13.26;47.63;98819.06;5092754;28;20263;-63
2023/03/06 08:44:18;;;;;;;5.77;2.23;;;;;;;12.87;46.30;98819.00;5092682;28;20260;-63
2023/03/06 08:46:45;;;;;;;3.07;2.03;;;;;;;13.06;48.94;98818.19;5092675;28;20199;-63
2023/03/06 08:49:12;;;;;;;2.77;1.90;;;;;;;13.31;47.69;98817.72;5092330;28;20231;-59
2023/03/06 08:51:39;;;;;;;3.63;1.87;;;;;;;13.24;45.75;98814.06;5092582;28;20195;-60
2023/03/06 08:54:06;;;;;;;3.50;1.80;;;;;;;12.61;46.64;98811.78;5092512;28;20203;-63
2023/03/06 08:56:34;;;;;;;4.03;2.37;;;;;;;13.64;45.78;98813.09;5092439;28;20207;-63
2023/03/06 08:59:03;;;;;;;3.30;1.97;;;;;;;12.93;46.94;98812.53;5092078;28;20234;-63
2023/03/06 09:01:33;;;;;;;2.07;1.47;;;;;;;12.83;47.43;98815.88;5092733;28;20594;-63
2023/03/06 09:04:02;;;;;;;2.07;1.33;;;;;;;13.93;46.76;98823.38;5092077;28;20220;-60
2023/03/06 09:06:31;;;;;;;3.57;2.03;;;;;;;13.94;44.44;98822.41;5092328;28;20207;-60
2023/03/06 09:08:59;;;;;;;4.57;2.30;;;;;;;13.87;44.06;98820.53;5091994;28;20239;-59
2023/03/06 09:11:27;;;;;;;2.70;1.70;;;;;;;13.77;45.32;98818.78;5092433;28;20208;-63
2023/03/06 09:13:54;;;;;;;3.33;2.30;;;;;;;13.59;46.14;98810.16;5092231;28;20225;-60
2023/03/06 09:16:22;;;;;;;3.67;2.03;;;;;;;14.15;45.47;98806.78;5092167;28;20583;-63
2023/03/06 09:18:52;;;;;;;4.40;2.43;;;;;;;13.86;43.77;98811.19;5091993;28;20232;-60
2023/03/06 09:21:20;;;;;;;3.20;2.00;;;;;;;13.32;45.10;98808.25;5091857;28;20738;-63
2023/03/06 09:23:47;;;;;;;7.17;2.03;;;;;;;13.55;45.23;98798.53;5091728;28;20231;-59
2023/03/06 09:26:14;;;;;;;3.17;1.97;;;;;;;13.53;43.67;98810.72;5091977;28;20244;-60
2023/03/06 09:28:41;;;;;;;4.53;2.47;;;;;;;14.24;42.79;98816.22;5091680;28;20234;-63
2023/03/06 09:31:09;;;;;;;4.73;2.43;;;;;;;13.59;44.47;98810.16;5091805;28;20203;-64
2023/03/06 09:33:36;;;;;;;3.20;1.80;;;;;;;13.23;43.66;98804.72;5091736;28;20224;-63
2023/03/06 09:36:07;;;;;;;3.53;2.00;;;;;;;12.70;44.35;98792.22;5091632;28;20290;-59
2023/03/06 09:38:34;;;;;;;4.20;2.20;;;;;;;13.29;44.82;98804.22;5092018;28;20243;-60
2023/03/06 09:41:08;;;;;;;2.97;1.90;;;;;;;13.79;42.96;98796.34;5091639;28;20199;-62
2023/03/06 09:43:39;;;;;;;3.77;2.10;;;;;;;13.99;43.47;98798.84;5091754;28;20218;-63
2023/03/06 09:46:28;;;;;;;4.67;1.93;;;;;;;14.51;42.72;98794.03;5091136;28;20204;-63
2023/03/06 09:49:10;;;;;;;4.33;2.23;;;;;;;14.57;41.04;98785.78;5091230;28;20237;-63
2023/03/06 09:51:51;;;;;;;4.40;1.97;;;;;;;13.63;43.64;98788.38;5091507;28;20259;-60
2023/03/06 09:54:23;;;;;;;4.10;2.33;;;;;;;14.80;43.23;98793.09;5091545;28;20220;-60
2023/03/06 09:56:50;;;;;;;4.03;2.30;;;;;;;15.06;41.53;98790.63;5091032;28;20202;-60
2023/03/06 09:59:21;;;;;;;4.50;2.60;;;;;;;14.64;39.87;98784.25;5092084;28;20213;-64
2023/03/06 10:01:58;;;;;;;4.40;2.33;;;;;;;14.96;41.10;98790.72;5111306;28;20201;-59
2023/03/06 10:04:35;;;;;;;3.57;2.00;;;;;;;14.44;41.64;98786.09;5110462;28;20723;-63
2023/03/06 10:07:10;;;;;;;3.30;2.07;;;;;;;14.57;41.19;98779.81;5111486;28;20607;-59
2023/03/06 10:09:42;;;;;;;3.97;2.50;;;;;;;15.04;42.34;98777.94;5110382;28;20254;-63
2023/03/06 10:12:20;;;;;;;4.27;2.40;;;;;;;15.06;40.65;98791.44;5111161;28;20602;-63
2023/03/06 10:14:57;;;;;;;5.97;2.87;;;;;;;15.01;42.48;98790.25;5110831;28;20199;-63
2023/03/06 10:17:26;;;;;;;4.87;2.80;;;;;;;14.38;43.38;98785.88;5109964;28;20248;-60
2023/03/06 10:19:53;;;;;;;4.83;2.67;;;;;;;15.53;42.54;98786.06;5111281;28;20202;-60
2023/03/06 10:22:27;;;;;;;7.40;3.13;;;;;;;15.62;41.92;98782.59;5111377;28;20569;-60
2023/03/06 10:24:57;;;;;;;5.53;3.00;;;;;;;15.80;41.52;98776.59;5111119;28;20197;-60
2023/03/06 10:27:38;;;;;;;5.40;3.00;;;;;;;15.92;40.46;98772.81;5111050;28;20613;-63
2023/03/06 10:30:22;;;;;;;5.10;3.30;;;;;;;16.18;40.32;98777.13;5111451;28;20197;-60
2023/03/06 10:32:56;;;;;;;6.40;3.60;;;;;;;15.52;40.95;98776.69;5110938;27;20247;-63
2023/03/06 10:35:28;;;;;;;5.33;2.80;;;;;;;15.22;40.66;98785.66;5111224;28;20239;-60
2023/03/06 10:38:09;;;;;;;4.13;2.80;;;;;;;14.87;40.64;98769.22;5109954;28;20235;-64
2023/03/06 10:40:48;;;;;;;7.00;3.03;;;;;;;14.87;42.58;98766.66;5110128;28;20191;-63
2023/03/06 10:43:15;;;;;;;4.90;2.43;;;;;;;14.82;40.67;98760.31;5109847;28;20228;-60
2023/03/06 10:45:50;;;;;;;4.70;3.03;;;;;;;15.34;41.48;98752.75;5108819;28;20204;-60
2023/03/06 10:48:20;;;;;;;5.13;3.10;;;;;;;15.71;41.23;98749.16;5109318;28;20224;-60
2023/03/06 10:50:48;;;;;;;6.50;3.10;;;;;;;15.30;40.84;98751.41;5108558;28;20733;-60
2023/03/06 10:53:25;;;;;;;5.03;3.10;;;;;;;14.70;40.77;98745.09;5109420;28;20226;-63
2023/03/06 10:55:55;;;;;;;7.97;3.93;;;;;;;15.78;39.72;98737.28;5109686;28;20189;-60
2023/03/06 10:58:25;;;;;;;4.43;2.47;;;;;;;15.09;37.88;98733.69;5109913;28;20219;-63
2023/03/06 11:01:05;;;;;;;3.80;2.07;;;;;;;14.91;39.47;98733.69;5112400;28;20208;-63
2023/03/06 11:03:33;;;;;;;3.50;2.03;;;;;;;14.03;40.06;98730.78;5110701;28;20216;-60
2023/03/06 11:06:08;;;;;;;5.23;2.67;;;;;;;14.29;40.43;98736.09;5110391;28;20200;-63
2023/03/06 11:08:36;;;;;;;5.27;2.63;;;;;;;14.61;40.86;98727.94;5110589;28;20243;-63
2023/03/06 11:11:05;;;;;;;10.97;2.93;;;;;;;14.44;41.65;98724.38;5110337;28;20293;-60
2023/03/06 11:13:34;;;;;;;10.33;4.07;;;;;;;14.23;39.44;98724.63;5110738;28;20221;-60
2023/03/06 11:16:07;;;;;;;6.90;3.03;;;;;;;14.62;40.26;98721.84;5110389;28;20194;-60
2023/03/06 11:18:39;;;;;;;5.23;2.53;;;;;;;14.76;39.07;98719.72;5110682;28;20277;-59
2023/03/06 11:21:25;;;;;;;4.97;2.50;;;;;;;14.65;39.25;98716.41;5110268;28;20200;-63
2023/03/06 11:23:56;;;;;;;6.70;2.77;;;;;;;14.84;39.78;98714.66;5110139;28;20709;-63
2023/03/06 11:26:36;;;;;;;5.87;2.57;;;;;;;15.03;40.03;98708.53;5110229;28;20596;-63
2023/03/06 11:29:34;;;;;;;6.33;2.73;;;;;;;15.22;39.03;98707.56;5110274;28;20233;-60
2023/03/06 11:32:08;;;;;;;4.27;2.60;;;;;;;14.23;37.05;98711.75;5075167;28;20215;-60
2023/03/06 11:34:44;;;;;;;5.17;3.00;;;;;;;13.97;40.28;98697.94;5109914;28;20220;-59
2023/03/06 11:37:20;;;;;;;6.83;3.03;;;;;;;14.92;40.15;98704.41;5109942;28;20221;-60
2023/03/06 11:39:56;;;;;;;6.27;2.77;;;;;;;14.68;39.55;98705.81;5110312;28;20247;-63
2023/03/06 11:42:29;;;;;;;4.90;2.17;;;;;;;14.78;39.90;98692.09;5110210;28;20705;-63
2023/03/06 11:45:16;;;;;;;4.73;2.73;;;;;;;14.76;38.96;98694.81;5110076;28;20367;-60